Time;durP1;ratioP1;P1;durP2;ratioP2;P2;SDS_P1;SDS_P2;PMS_P1;PMS_P2;Temp;Humidity;BMP_temperature;BMP_pressure;BME280_temperature;BME280_humidity;BME280_pressure;Samples;Min_cycle;Max_cycle;Signal;HPM_P1;HPM_P2
2021/05/18 00:01:03;;;;;;;;;;;19.50;63.70;;;;;;5073177;28;1377;-65
2021/05/18 00:03:29;;;;;;;;;;;19.50;63.80;;;;;;5066668;28;1186;-65
2021/05/18 00:05:55;;;;;;;;;;;19.50;63.70;;;;;;5072045;28;1189;-65
2021/05/18 00:08:22;;;;;;;;;;;19.50;63.80;;;;;;5072977;28;1636;-64
2021/05/18 00:13:33;;;;;;;;;;;19.50;63.80;;;;;;5073077;28;1082;-66
2021/05/18 00:15:59;;;;;;;;;;;19.50;63.80;;;;;;5070975;28;1910;-66
2021/05/18 00:18:25;;;;;;;;;;;19.50;63.80;;;;;;5072790;28;1078;-66
2021/05/18 00:20:50;;;;;;;;;;;19.50;63.80;;;;;;5067503;28;1317;-66
2021/05/18 00:23:16;;;;;;;;;;;19.50;63.80;;;;;;5072291;28;1071;-66
2021/05/18 00:25:41;;;;;;;;;;;19.50;63.80;;;;;;5072137;28;1162;-66
2021/05/18 00:28:07;;;;;;;;;;;19.50;63.90;;;;;;5054340;28;1200;-65
2021/05/18 00:30:32;;;;;;;;;;;19.50;63.80;;;;;;5072161;28;1128;-66
2021/05/18 00:32:58;;;;;;;;;;;19.50;63.90;;;;;;5071477;28;1274;-66
2021/05/18 00:35:23;;;;;;;;;;;19.50;63.90;;;;;;5071785;28;1902;-66
2021/05/18 00:37:49;;;;;;;;;;;19.50;63.90;;;;;;5072435;28;1149;-66
2021/05/18 00:40:16;;;;;;;;;;;19.50;63.90;;;;;;5072296;28;1114;-66
2021/05/18 00:42:49;;;;;;;;;;;19.50;64.00;;;;;;5071987;28;1227;-66
2021/05/18 00:45:14;;;;;;;;;;;19.50;63.90;;;;;;5071348;28;1134;-66
2021/05/18 00:47:39;;;;;;;;;;;19.50;63.90;;;;;;5070879;28;1111;-66
2021/05/18 00:50:05;;;;;;;;;;;19.50;63.90;;;;;;5072266;28;1180;-66
2021/05/18 00:52:31;;;;;;;;;;;19.50;64.00;;;;;;5071599;28;1195;-66
2021/05/18 00:54:59;;;;;;;;;;;19.50;64.00;;;;;;5072263;28;1086;-66
2021/05/18 01:00:09;;;;;;;;;;;19.50;64.00;;;;;;5072325;28;904;-66
2021/05/18 01:02:34;;;;;;;;;;;19.50;64.00;;;;;;5066607;28;1203;-66
2021/05/18 01:05:20;;;;;;;;;;;19.50;64.00;;;;;;5072051;28;1118;-65
2021/05/18 01:07:49;;;;;;;;;;;19.50;64.00;;;;;;5071804;28;1145;-66
2021/05/18 01:10:14;;;;;;;;;;;19.50;64.00;;;;;;5070884;28;1467;-66
2021/05/18 01:12:40;;;;;;;;;;;19.50;64.00;;;;;;5071470;28;1716;-67
2021/05/18 01:15:06;;;;;;;;;;;19.50;64.00;;;;;;5071899;28;1211;-66
2021/05/18 01:17:31;;;;;;;;;;;19.50;64.00;;;;;;5071450;28;1910;-66
2021/05/18 01:20:05;;;;;;;;;;;19.50;64.10;;;;;;5067135;28;1059;-65
2021/05/18 01:22:31;;;;;;;;;;;19.50;64.10;;;;;;5057737;28;1257;-65
2021/05/18 01:24:56;;;;;;;;;;;19.50;64.10;;;;;;5071957;28;1180;-66
2021/05/18 01:27:21;;;;;;;;;;;19.50;64.10;;;;;;5070839;28;1111;-66
2021/05/18 01:29:47;;;;;;;;;;;19.50;64.10;;;;;;5072118;28;1087;-66
2021/05/18 01:32:12;;;;;;;;;;;19.50;64.10;;;;;;5071957;28;1280;-65
2021/05/18 01:34:38;;;;;;;;;;;19.50;64.10;;;;;;5071434;28;1099;-66
2021/05/18 01:37:03;;;;;;;;;;;19.40;64.00;;;;;;5070587;28;1957;-66
2021/05/18 01:44:38;;;;;;;;;;;19.50;64.20;;;;;;5075194;28;1043;-66
2021/05/18 01:47:05;;;;;;;;;;;19.50;64.10;;;;;;5074139;28;1091;-66
2021/05/18 01:49:31;;;;;;;;;;;19.40;64.10;;;;;;5074843;28;1117;-66
2021/05/18 01:51:57;;;;;;;;;;;19.40;64.10;;;;;;5074255;28;1270;-66
2021/05/18 01:54:25;;;;;;;;;;;19.50;64.20;;;;;;5075243;28;1082;-67
2021/05/18 01:57:36;;;;;;;;;;;19.40;64.10;;;;;;5075040;28;2012;-66
2021/05/18 01:59:36;;;;;;;;;;;19.40;64.10;;;;;;5064676;28;1231;-67
2021/05/18 02:02:03;;;;;;;;;;;19.40;64.10;;;;;;5072019;28;1223;-66
2021/05/18 02:04:30;;;;;;;;;;;19.40;64.10;;;;;;5072978;28;1059;-65
2021/05/18 02:06:56;;;;;;;;;;;19.40;64.20;;;;;;5075049;28;1107;-66
2021/05/18 02:09:21;;;;;;;;;;;19.40;64.10;;;;;;5075169;28;1114;-66
2021/05/18 02:11:48;;;;;;;;;;;19.40;64.20;;;;;;5073930;28;1219;-67
2021/05/18 02:14:25;;;;;;;;;;;19.40;64.10;;;;;;5073436;28;1127;-66
2021/05/18 02:16:54;;;;;;;;;;;19.40;64.20;;;;;;5073184;28;1965;-67
2021/05/18 02:19:29;;;;;;;;;;;19.40;64.10;;;;;;5073587;28;1119;-66
2021/05/18 02:22:11;;;;;;;;;;;19.40;64.20;;;;;;5070305;28;1495;-66
2021/05/18 02:25:01;;;;;;;;;;;19.40;64.20;;;;;;5074587;28;1164;-66
2021/05/18 02:27:28;;;;;;;;;;;19.40;64.20;;;;;;5070247;28;1087;-67
2021/05/18 02:29:54;;;;;;;;;;;19.40;64.20;;;;;;5065248;28;1274;-66
2021/05/18 02:32:20;;;;;;;;;;;19.40;64.20;;;;;;5074271;28;1290;-65
2021/05/18 02:34:45;;;;;;;;;;;19.40;64.20;;;;;;5074259;28;1145;-66
2021/05/18 02:37:11;;;;;;;;;;;19.40;64.20;;;;;;5073121;28;1949;-66
2021/05/18 02:39:36;;;;;;;;;;;19.40;64.20;;;;;;5074092;28;1066;-66
2021/05/18 02:42:02;;;;;;;;;;;19.40;64.30;;;;;;5074032;28;1211;-65
2021/05/18 02:44:38;;;;;;;;;;;19.40;64.20;;;;;;5074474;28;1082;-66
2021/05/18 02:49:47;;;;;;;;;;;19.40;64.20;;;;;;5074079;28;1058;-67
2021/05/18 02:52:16;;;;;;;;;;;19.40;64.30;;;;;;5073924;28;1229;-66
2021/05/18 02:54:45;;;;;;;;;;;19.40;64.30;;;;;;5073235;28;1118;-66
2021/05/18 02:57:12;;;;;;;;;;;19.40;64.30;;;;;;5073728;28;1897;-66
2021/05/18 02:59:37;;;;;;;;;;;19.40;64.30;;;;;;5070545;28;1121;-66
2021/05/18 03:02:03;;;;;;;;;;;19.40;64.30;;;;;;5065396;28;1247;-66
2021/05/18 03:04:28;;;;;;;;;;;19.40;64.30;;;;;;5067921;28;1204;-66
2021/05/18 03:06:54;;;;;;;;;;;19.40;64.40;;;;;;5063919;28;1274;-67
2021/05/18 03:09:20;;;;;;;;;;;19.50;64.80;;;;;;5067231;28;1114;-66
2021/05/18 03:11:46;;;;;;;;;;;19.50;64.70;;;;;;5064509;28;1348;-65
2021/05/18 03:14:11;;;;;;;;;;;19.50;64.90;;;;;;5067968;28;1210;-66
2021/05/18 03:16:37;;;;;;;;;;;19.50;64.70;;;;;;5064120;28;1906;-65
2021/05/18 03:19:03;;;;;;;;;;;19.60;64.90;;;;;;5067348;28;1145;-66
2021/05/18 03:21:31;;;;;;;;;;;19.60;64.80;;;;;;5062572;28;1392;-66
2021/05/18 03:23:57;;;;;;;;;;;19.50;64.70;;;;;;5066337;28;1179;-65
2021/05/18 03:26:22;;;;;;;;;;;19.60;64.90;;;;;;5065291;28;1195;-66
2021/05/18 03:28:55;;;;;;;;;;;19.60;65.00;;;;;;5067453;28;1330;-66
2021/05/18 03:36:48;;;;;;;;;;;19.60;65.30;;;;;;5066970;28;1898;-66
2021/05/18 03:39:14;;;;;;;;;;;19.60;65.40;;;;;;5066457;28;1250;-66
2021/05/18 03:41:52;;;;;;;;;;;19.60;65.40;;;;;;5066879;28;1395;-67
2021/05/18 03:52:27;;;;;;;;;;;19.70;65.50;;;;;;5066252;28;1307;-66
2021/05/18 03:55:02;;;;;;;;;;;19.70;65.70;;;;;;5073526;28;1218;-66
2021/05/18 04:03:38;;;;;;;;;;;19.80;65.70;;;;;;5067680;28;1172;-67
2021/05/18 04:19:12;;;;;;;;;;;19.80;65.50;;;;;;5072362;28;1134;-67
2021/05/18 05:07:46;;;;;;;;;;;20.00;66.50;;;;;;5072223;28;987;-67
2021/05/18 05:10:12;;;;;;;;;;;20.00;66.50;;;;;;5072759;28;1063;-67
2021/05/18 05:13:05;;;;;;;;;;;20.00;66.50;;;;;;5070913;28;1755;-67
2021/05/18 05:15:26;;;;;;;;;;;20.00;66.30;;;;;;5071045;28;1930;-67
2021/05/18 05:17:51;;;;;;;;;;;20.00;66.50;;;;;;5072616;28;1130;-66
2021/05/18 05:20:17;;;;;;;;;;;20.00;66.40;;;;;;5071013;28;1098;-67
2021/05/18 05:22:42;;;;;;;;;;;20.00;66.40;;;;;;5075811;28;1315;-66
2021/05/18 05:25:08;;;;;;;;;;;20.00;66.30;;;;;;5075992;28;1145;-66
2021/05/18 05:27:33;;;;;;;;;;;20.00;66.30;;;;;;5075668;28;1098;-66
2021/05/18 05:29:59;;;;;;;;;;;20.00;66.30;;;;;;5076209;28;1079;-67
2021/05/18 05:32:24;;;;;;;;;;;20.00;66.30;;;;;;5076518;28;1209;-67
2021/05/18 05:34:50;;;;;;;;;;;20.00;66.40;;;;;;5075571;28;1116;-66
2021/05/18 05:37:15;;;;;;;;;;;20.00;66.50;;;;;;5073837;28;2020;-67
2021/05/18 05:39:41;;;;;;;;;;;20.00;66.40;;;;;;5075938;28;1066;-67
2021/05/18 05:42:06;;;;;;;;;;;20.00;66.50;;;;;;5074738;28;1308;-66
2021/05/18 05:44:32;;;;;;;;;;;20.00;66.50;;;;;;5075936;28;1110;-68
2021/05/18 05:46:58;;;;;;;;;;;20.00;66.60;;;;;;5075276;28;1167;-67
2021/05/18 05:49:24;;;;;;;;;;;20.00;66.60;;;;;;5075348;28;1074;-67
2021/05/18 05:51:49;;;;;;;;;;;20.00;67.00;;;;;;5076029;28;1210;-67
2021/05/18 05:54:15;;;;;;;;;;;20.00;67.20;;;;;;5075783;28;1102;-67
2021/05/18 05:56:40;;;;;;;;;;;20.00;67.30;;;;;;5074709;28;1898;-67
2021/05/18 05:59:08;;;;;;;;;;;20.10;67.60;;;;;;5075449;28;1070;-67
2021/05/18 06:01:33;;;;;;;;;;;20.10;67.60;;;;;;5075528;28;1264;-67
2021/05/18 06:03:59;;;;;;;;;;;20.10;67.80;;;;;;5070409;28;1050;-67
2021/05/18 06:06:25;;;;;;;;;;;20.10;68.00;;;;;;5074961;28;1071;-66
2021/05/18 06:08:50;;;;;;;;;;;20.10;67.90;;;;;;5075646;28;1183;-67
2021/05/18 06:11:25;;;;;;;;;;;20.10;68.00;;;;;;5074157;28;1314;-67
2021/05/18 06:14:04;;;;;;;;;;;20.10;68.00;;;;;;5066108;22;3677;-72
2021/05/18 06:46:45;;;;;;;;;;;20.10;69.10;;;;;;5033459;28;1107;-68
2021/05/18 06:49:10;;;;;;;;;;;20.10;68.80;;;;;;5034018;28;1159;-68
2021/05/18 06:51:35;;;;;;;;;;;20.10;68.70;;;;;;5034113;28;1631;-68
2021/05/18 06:54:01;;;;;;;;;;;20.10;68.70;;;;;;5033997;28;1188;-68
2021/05/18 06:56:33;;;;;;;;;;;20.10;69.40;;;;;;5034543;28;1902;-73
2021/05/18 07:01:27;;;;;;;;;;;20.10;68.40;;;;;;5020921;28;1379;-73
2021/05/18 07:03:54;;;;;;;;;;;20.10;68.30;;;;;;5029893;28;1503;-73
2021/05/18 07:08:56;;;;;;;;;;;20.10;68.20;;;;;;5034674;28;1180;-73
2021/05/18 07:11:22;;;;;;;;;;;20.10;68.10;;;;;;5033166;28;1395;-73
2021/05/18 07:13:47;;;;;;;;;;;20.10;68.10;;;;;;5034289;28;1460;-73
2021/05/18 07:16:12;;;;;;;;;;;20.10;68.00;;;;;;5045886;28;1898;-73
2021/05/18 07:18:38;;;;;;;;;;;20.10;68.00;;;;;;5034383;28;1480;-73
2021/05/18 07:21:03;;;;;;;;;;;20.10;68.20;;;;;;5029124;28;1485;-73
2021/05/18 07:23:29;;;;;;;;;;;20.10;68.10;;;;;;5034270;28;1490;-73
2021/05/18 07:25:54;;;;;;;;;;;20.10;68.10;;;;;;5033201;28;1630;-73
2021/05/18 07:28:20;;;;;;;;;;;20.10;68.00;;;;;;5034073;28;1051;-73
2021/05/18 07:30:46;;;;;;;;;;;20.10;68.00;;;;;;5034394;28;1586;-73
2021/05/18 07:33:12;;;;;;;;;;;20.10;67.90;;;;;;5033058;28;1482;-73
2021/05/18 07:35:42;;;;;;;;;;;20.10;67.90;;;;;;5025866;28;1933;-72
2021/05/18 07:38:07;;;;;;;;;;;20.10;67.80;;;;;;5029086;28;1575;-73
2021/05/18 07:40:33;;;;;;;;;;;20.10;68.00;;;;;;5034142;28;895;-73
2021/05/18 07:43:01;;;;;;;;;;;20.10;67.90;;;;;;5034066;28;1358;-72
2021/05/18 07:45:27;;;;;;;;;;;20.10;67.80;;;;;;5031771;28;1231;-72
2021/05/18 07:47:59;;;;;;;;;;;20.10;67.70;;;;;;5030753;28;1381;-73
2021/05/18 07:50:44;;;;;;;;;;;20.10;67.70;;;;;;5037509;28;887;-72
2021/05/18 08:06:51;;;;;;;;;;;20.20;67.70;;;;;;5046078;28;874;-72
2021/05/18 08:09:19;;;;;;;;;;;20.20;67.70;;;;;;5015832;28;1491;-72
2021/05/18 08:11:44;;;;;;;;;;;20.20;67.70;;;;;;5025107;28;839;-72
2021/05/18 08:14:10;;;;;;;;;;;20.20;67.60;;;;;;5037569;28;1315;-71
2021/05/18 08:22:12;;;;;;;;;;;20.20;67.60;;;;;;5028089;28;1377;-71
2021/05/18 09:33:07;;;;;;;;;;;20.20;67.60;;;;;;5031587;28;1564;-69
2021/05/18 09:49:20;;;;;;;;;;;20.30;67.60;;;;;;5031979;28;1618;-73
2021/05/18 10:22:52;;;;;;;;;;;20.30;67.50;;;;;;5033226;28;1384;-72
2021/05/18 10:38:19;;;;;;;;;;;20.30;67.60;;;;;;5033237;28;1325;-67
2021/05/18 10:40:44;;;;;;;;;;;20.30;67.50;;;;;;5025068;28;1458;-68
2021/05/18 10:43:11;;;;;;;;;;;20.30;67.50;;;;;;5022159;28;1393;-68
2021/05/18 10:45:56;;;;;;;;;;;20.30;67.60;;;;;;5032300;28;1990;-69
2021/05/18 10:48:42;;;;;;;;;;;20.30;67.60;;;;;;5025554;28;1652;-68
2021/05/18 10:51:23;;;;;;;;;;;20.30;67.50;;;;;;5028625;28;1621;-67
2021/05/18 10:54:07;;;;;;;;;;;20.30;67.50;;;;;;5025117;28;1603;-68
2021/05/18 10:56:51;;;;;;;;;;;20.30;67.50;;;;;;5024297;28;1965;-68
2021/05/18 10:59:17;;;;;;;;;;;20.30;67.50;;;;;;5035135;28;1455;-68
2021/05/18 11:01:43;;;;;;;;;;;20.30;67.60;;;;;;5033817;28;1179;-68
2021/05/18 11:04:08;;;;;;;;;;;20.20;67.60;;;;;;5034707;28;1721;-68
2021/05/18 11:06:34;;;;;;;;;;;20.30;67.40;;;;;;5024978;28;1459;-68
2021/05/18 11:08:59;;;;;;;;;;;20.30;65.30;;;;;;5016015;28;1659;-68
2021/05/18 11:11:25;;;;;;;;;;;20.20;63.90;;;;;;5021168;28;1243;-68
2021/05/18 11:13:54;;;;;;;;;;;20.20;63.20;;;;;;5019195;28;1540;-67
2021/05/18 11:16:19;;;;;;;;;;;20.20;62.60;;;;;;5037170;28;1910;-66
2021/05/18 11:18:46;;;;;;;;;;;20.20;62.10;;;;;;5031671;28;1956;-67
2021/05/18 11:21:12;;;;;;;;;;;20.10;61.80;;;;;;5028305;28;1326;-73
2021/05/18 11:23:38;;;;;;;;;;;20.10;62.20;;;;;;5034006;28;1574;-72
2021/05/18 11:26:05;;;;;;;;;;;20.10;60.80;;;;;;5032191;28;1584;-73
2021/05/18 11:28:37;;;;;;;;;;;20.10;60.40;;;;;;5034224;28;1760;-72
2021/05/18 11:31:03;;;;;;;;;;;20.00;60.00;;;;;;5033215;28;855;-72
2021/05/18 11:33:32;;;;;;;;;;;20.10;60.00;;;;;;5032752;28;1659;-71
2021/05/18 11:36:10;;;;;;;;;;;20.00;60.00;;;;;;5033402;28;1898;-72
2021/05/18 11:38:36;;;;;;;;;;;20.00;60.20;;;;;;5033832;28;1420;-73
2021/05/18 11:41:02;;;;;;;;;;;20.00;60.10;;;;;;5030653;28;1056;-72
2021/05/18 11:43:34;;;;;;;;;;;20.00;59.80;;;;;;5000893;28;1471;-71
2021/05/18 11:46:04;;;;;;;;;;;20.00;59.70;;;;;;5023534;28;1587;-71
2021/05/18 11:48:29;;;;;;;;;;;20.00;59.60;;;;;;5033182;28;1414;-72
2021/05/18 11:51:02;;;;;;;;;;;19.90;59.50;;;;;;5033939;28;1565;-73
2021/05/18 11:53:37;;;;;;;;;;;20.00;59.60;;;;;;5034147;28;1621;-72
2021/05/18 11:56:22;;;;;;;;;;;19.90;59.80;;;;;;5032588;28;1906;-72
2021/05/18 11:58:48;;;;;;;;;;;19.90;59.80;;;;;;5033163;28;1710;-72
2021/05/18 12:01:13;;;;;;;;;;;19.90;59.80;;;;;;5032339;28;1654;-72
2021/05/18 12:03:39;;;;;;;;;;;19.90;60.10;;;;;;5033525;28;1490;-73
2021/05/18 12:06:04;;;;;;;;;;;19.90;59.70;;;;;;5031595;28;1614;-73
2021/05/18 12:08:30;;;;;;;;;;;19.90;59.60;;;;;;5031955;28;1196;-73
2021/05/18 12:10:55;;;;;;;;;;;19.90;59.80;;;;;;5032985;28;1659;-73
2021/05/18 12:13:28;;;;;;;;;;;19.90;59.60;;;;;;5055912;22;2318;-66
2021/05/18 12:16:04;;;;;;;;;;;19.90;59.70;;;;;;5050584;28;1961;-66
2021/05/18 12:18:31;;;;;;;;;;;19.90;60.10;;;;;;5052516;28;1733;-66
2021/05/18 12:21:00;;;;;;;;;;;19.80;59.50;;;;;;5053299;28;1478;-67
2021/05/18 12:23:25;;;;;;;;;;;19.80;59.50;;;;;;5045280;28;1465;-66
2021/05/18 12:25:51;;;;;;;;;;;19.80;59.50;;;;;;5033244;28;1106;-66
2021/05/18 12:28:19;;;;;;;;;;;19.80;59.70;;;;;;5033287;28;1378;-68
2021/05/18 12:30:44;;;;;;;;;;;19.90;59.90;;;;;;5032392;28;1374;-68
2021/05/18 12:33:10;;;;;;;;;;;19.80;59.80;;;;;;5033333;28;1646;-67
2021/05/18 12:35:35;;;;;;;;;;;19.80;59.60;;;;;;5032990;28;1982;-68
2021/05/18 12:38:11;;;;;;;;;;;19.80;59.30;;;;;;5033250;28;1631;-68
2021/05/18 12:40:37;;;;;;;;;;;19.80;59.10;;;;;;5032270;28;1576;-68
2021/05/18 12:43:08;;;;;;;;;;;19.80;58.90;;;;;;5031950;28;1585;-67
2021/05/18 12:45:34;;;;;;;;;;;19.80;58.80;;;;;;5032984;28;1662;-66
2021/05/18 12:48:00;;;;;;;;;;;19.80;58.80;;;;;;5031582;28;1739;-67
2021/05/18 12:50:38;;;;;;;;;;;19.80;58.80;;;;;;5033041;28;1652;-66
2021/05/18 12:53:03;;;;;;;;;;;19.80;58.60;;;;;;5033049;28;1568;-67
2021/05/18 12:55:32;;;;;;;;;;;19.80;58.00;;;;;;5032666;28;1310;-67
2021/05/18 12:58:01;;;;;;;;;;;19.80;60.30;;;;;;5032971;28;1967;-67
2021/05/18 13:00:39;;;;;;;;;;;19.70;59.10;;;;;;5026910;28;1676;-66
2021/05/18 13:03:09;;;;;;;;;;;19.80;59.50;;;;;;5032748;28;2445;-65
2021/05/18 13:05:34;;;;;;;;;;;19.80;58.90;;;;;;5031177;28;1543;-65
2021/05/18 13:08:18;;;;;;;;;;;19.70;58.30;;;;;;5032789;28;1381;-64
2021/05/18 13:10:52;;;;;;;;;;;19.80;59.90;;;;;;5032802;28;1654;-65
2021/05/18 13:13:18;;;;;;;;;;;19.70;59.20;;;;;;5032743;28;1403;-64
2021/05/18 13:15:44;;;;;;;;;;;19.70;58.90;;;;;;5032299;28;1963;-64
2021/05/18 13:18:10;;;;;;;;;;;19.70;59.10;;;;;;5031699;28;1143;-65
2021/05/18 13:20:42;;;;;;;;;;;19.80;59.20;;;;;;5032467;28;1147;-65
2021/05/18 13:23:14;;;;;;;;;;;19.70;59.60;;;;;;5032603;28;1259;-65
2021/05/18 13:28:24;;;;;;;;;;;19.80;59.50;;;;;;5031624;28;1088;-65
2021/05/18 13:30:49;;;;;;;;;;;19.80;59.50;;;;;;5032604;28;1326;-64
2021/05/18 13:33:15;;;;;;;;;;;19.70;59.40;;;;;;5032418;28;1302;-65
2021/05/18 13:35:40;;;;;;;;;;;19.70;59.60;;;;;;5032164;28;1898;-65
2021/05/18 13:38:06;;;;;;;;;;;19.70;59.20;;;;;;5032112;28;1104;-65
2021/05/18 13:40:31;;;;;;;;;;;19.70;59.10;;;;;;5035395;28;1122;-65
2021/05/18 13:42:57;;;;;;;;;;;19.70;59.00;;;;;;5036607;28;1365;-66
2021/05/18 13:45:25;;;;;;;;;;;19.70;59.10;;;;;;5036000;28;1123;-65
2021/05/18 13:47:54;;;;;;;;;;;19.70;59.30;;;;;;5035049;28;1099;-65
2021/05/18 13:50:19;;;;;;;;;;;19.70;60.00;;;;;;5036204;28;1098;-65
2021/05/18 13:52:45;;;;;;;;;;;19.70;59.60;;;;;;5035929;28;1367;-65
2021/05/18 13:55:14;;;;;;;;;;;19.70;59.00;;;;;;5035897;28;1087;-64
2021/05/18 13:57:39;;;;;;;;;;;19.70;59.80;;;;;;5035947;28;1902;-66
2021/05/18 14:00:07;;;;;;;;;;;19.70;59.20;;;;;;5036169;28;1071;-65
2021/05/18 14:02:32;;;;;;;;;;;19.70;58.90;;;;;;5034742;28;1390;-66
2021/05/18 14:04:59;;;;;;;;;;;19.70;59.20;;;;;;5035968;28;1071;-65
2021/05/18 14:07:43;;;;;;;;;;;19.70;59.20;;;;;;5035690;28;1146;-65
2021/05/18 14:10:09;;;;;;;;;;;19.70;59.30;;;;;;5036233;28;1349;-65
2021/05/18 14:12:34;;;;;;;;;;;19.70;59.00;;;;;;5035943;28;1264;-65
2021/05/18 14:15:00;;;;;;;;;;;19.70;59.60;;;;;;5035718;28;1170;-65
2021/05/18 14:17:25;;;;;;;;;;;19.70;59.00;;;;;;5035423;28;1952;-65
2021/05/18 14:19:51;;;;;;;;;;;19.70;58.90;;;;;;5035648;28;1151;-65
2021/05/18 14:22:16;;;;;;;;;;;19.70;59.10;;;;;;5035745;28;1103;-65
2021/05/18 14:24:52;;;;;;;;;;;19.70;59.10;;;;;;5035694;28;1270;-65
2021/05/18 14:27:20;;;;;;;;;;;19.70;59.20;;;;;;5035359;28;1028;-64
2021/05/18 14:29:45;;;;;;;;;;;19.70;58.90;;;;;;5035759;28;1107;-65
2021/05/18 14:32:12;;;;;;;;;;;19.70;59.40;;;;;;5035257;28;1126;-66
2021/05/18 14:34:41;;;;;;;;;;;19.70;58.50;;;;;;5034421;28;1244;-65
2021/05/18 14:37:06;;;;;;;;;;;19.70;58.50;;;;;;5034984;28;1898;-65
2021/05/18 14:40:08;;;;;;;;;;;19.70;58.60;;;;;;5035446;28;1067;-65
2021/05/18 14:45:08;;;;;;;;;;;19.70;58.50;;;;;;5035201;28;1099;-66
2021/05/18 14:55:46;;;;;;;;;;;19.60;55.60;;;;;;5035080;28;1891;-66
2021/05/18 14:58:14;;;;;;;;;;;19.60;57.70;;;;;;5033785;28;1313;-66
2021/05/18 15:00:39;;;;;;;;;;;19.60;57.30;;;;;;5034971;28;1068;-67
2021/05/18 15:03:05;;;;;;;;;;;19.60;57.00;;;;;;5032848;28;1861;-65
2021/05/18 15:05:30;;;;;;;;;;;19.60;57.20;;;;;;5033239;28;1198;-65
2021/05/18 15:07:56;;;;;;;;;;;19.60;57.30;;;;;;5021520;28;1138;-65
2021/05/18 15:10:21;;;;;;;;;;;19.60;57.40;;;;;;5035156;28;1135;-66
2021/05/18 15:12:47;;;;;;;;;;;19.60;57.50;;;;;;5034496;28;1279;-66
2021/05/18 15:15:13;;;;;;;;;;;19.60;57.40;;;;;;5033043;28;1036;-69
2021/05/18 15:17:38;;;;;;;;;;;19.60;57.70;;;;;;5034386;28;1910;-68
2021/05/18 15:20:05;;;;;;;;;;;19.60;57.70;;;;;;5034553;28;1286;-69
2021/05/18 15:22:31;;;;;;;;;;;19.60;58.00;;;;;;5034866;28;1199;-68
2021/05/18 15:24:56;;;;;;;;;;;19.60;58.10;;;;;;5034513;28;1210;-69
2021/05/18 15:27:25;;;;;;;;;;;19.60;58.70;;;;;;5034176;28;1127;-68
2021/05/18 15:29:50;;;;;;;;;;;19.60;58.30;;;;;;5034846;28;1036;-68
2021/05/18 15:32:16;;;;;;;;;;;19.60;58.40;;;;;;5034496;28;1178;-67
2021/05/18 15:34:41;;;;;;;;;;;19.60;58.60;;;;;;5034136;28;1237;-67
2021/05/18 15:37:06;;;;;;;;;;;19.60;58.70;;;;;;5034264;28;1902;-66
2021/05/18 15:39:32;;;;;;;;;;;19.60;58.80;;;;;;5034221;28;1071;-67
2021/05/18 15:41:57;;;;;;;;;;;19.60;58.70;;;;;;5034155;28;1095;-68
2021/05/18 15:44:23;;;;;;;;;;;19.60;58.90;;;;;;5034345;28;1258;-68
2021/05/18 15:46:48;;;;;;;;;;;19.60;59.40;;;;;;5033754;28;1138;-68
2021/05/18 15:49:14;;;;;;;;;;;19.60;59.90;;;;;;5032770;28;1186;-68
2021/05/18 15:51:42;;;;;;;;;;;19.70;59.40;;;;;;5032996;28;1029;-68
2021/05/18 15:54:08;;;;;;;;;;;19.70;59.50;;;;;;5034054;28;1342;-68
2021/05/18 15:56:33;;;;;;;;;;;19.70;59.50;;;;;;5032321;28;1902;-68
2021/05/18 15:58:59;;;;;;;;;;;19.70;59.50;;;;;;5032753;28;1025;-67
2021/05/18 16:01:24;;;;;;;;;;;19.80;59.40;;;;;;5033705;28;1202;-68
2021/05/18 16:03:50;;;;;;;;;;;19.90;59.40;;;;;;5033269;28;1364;-69
2021/05/18 16:06:15;;;;;;;;;;;19.90;59.40;;;;;;5033466;28;1131;-68
2021/05/18 16:11:07;;;;;;;;;;;20.00;59.90;;;;;;5034131;28;1096;-67
2021/05/18 16:13:33;;;;;;;;;;;20.00;59.20;;;;;;5033500;28;1363;-66
2021/05/18 16:16:01;;;;;;;;;;;20.10;59.30;;;;;;5032000;28;1910;-68
2021/05/18 16:18:26;;;;;;;;;;;20.10;59.20;;;;;;5031413;28;2023;-68
2021/05/18 16:20:52;;;;;;;;;;;20.20;59.20;;;;;;5028262;28;1195;-68
2021/05/18 16:23:17;;;;;;;;;;;20.20;59.10;;;;;;5032291;28;1368;-67
2021/05/18 16:25:43;;;;;;;;;;;20.20;59.10;;;;;;5032980;28;1151;-68
2021/05/18 16:28:08;;;;;;;;;;;20.30;59.10;;;;;;5033602;28;984;-68
2021/05/18 16:30:34;;;;;;;;;;;20.30;59.00;;;;;;5033242;28;1171;-67
2021/05/18 16:33:00;;;;;;;;;;;20.30;59.00;;;;;;5033063;28;1319;-68
2021/05/18 16:35:26;;;;;;;;;;;20.40;59.00;;;;;;5032762;28;1238;-67
2021/05/18 16:37:51;;;;;;;;;;;20.40;59.00;;;;;;5033425;28;1926;-68
2021/05/18 16:40:17;;;;;;;;;;;20.40;59.00;;;;;;5033120;28;1135;-68
2021/05/18 16:42:42;;;;;;;;;;;20.40;58.90;;;;;;5031990;28;1347;-68
2021/05/18 16:45:08;;;;;;;;;;;20.40;59.00;;;;;;5032534;28;1214;-65
2021/05/18 16:47:34;;;;;;;;;;;20.40;58.90;;;;;;5025959;28;1449;-67
2021/05/18 16:49:59;;;;;;;;;;;20.40;58.90;;;;;;5032618;28;1350;-65
2021/05/18 16:52:25;;;;;;;;;;;20.50;58.90;;;;;;5030214;28;1933;-65
2021/05/18 16:54:50;;;;;;;;;;;20.50;58.90;;;;;;5040623;28;1244;-65
2021/05/18 16:57:15;;;;;;;;;;;20.50;58.90;;;;;;5027869;28;1895;-65
2021/05/18 16:59:41;;;;;;;;;;;20.50;58.90;;;;;;5031050;28;1104;-65
2021/05/18 17:02:07;;;;;;;;;;;20.50;58.90;;;;;;5032581;28;1080;-65
2021/05/18 17:04:32;;;;;;;;;;;20.60;58.90;;;;;;5032695;28;1247;-65
2021/05/18 17:07:00;;;;;;;;;;;20.60;59.00;;;;;;5032448;28;1095;-65
2021/05/18 17:09:26;;;;;;;;;;;20.60;59.00;;;;;;5033178;28;1178;-65
2021/05/18 17:11:52;;;;;;;;;;;20.50;59.00;;;;;;5032664;28;1155;-65
2021/05/18 17:14:18;;;;;;;;;;;20.50;59.00;;;;;;5031777;28;1270;-67
2021/05/18 17:16:44;;;;;;;;;;;20.50;59.00;;;;;;5031993;28;1902;-67
2021/05/18 17:19:09;;;;;;;;;;;20.50;59.00;;;;;;5032665;28;1093;-67
2021/05/18 17:21:35;;;;;;;;;;;20.50;59.10;;;;;;5031492;28;1068;-67
2021/05/18 17:24:00;;;;;;;;;;;20.50;59.10;;;;;;5031613;28;1361;-67
2021/05/18 17:26:26;;;;;;;;;;;20.50;59.10;;;;;;5032457;28;1111;-67
2021/05/18 17:28:51;;;;;;;;;;;20.50;59.20;;;;;;5031875;28;1344;-67
2021/05/18 17:31:17;;;;;;;;;;;20.50;59.20;;;;;;5026903;28;1912;-69
2021/05/18 17:33:42;;;;;;;;;;;20.50;59.20;;;;;;5027439;28;1890;-68
2021/05/18 17:36:08;;;;;;;;;;;20.50;59.30;;;;;;5031907;28;1910;-68
2021/05/18 17:38:33;;;;;;;;;;;20.50;59.30;;;;;;5030881;28;1338;-67
2021/05/18 17:41:01;;;;;;;;;;;20.50;59.30;;;;;;5032631;28;1401;-67
2021/05/18 17:43:27;;;;;;;;;;;20.50;59.30;;;;;;5031255;28;1601;-68
2021/05/18 17:45:52;;;;;;;;;;;20.50;59.30;;;;;;5031995;28;1324;-67
2021/05/18 17:48:17;;;;;;;;;;;20.50;59.40;;;;;;5031930;28;1397;-67
2021/05/18 17:50:43;;;;;;;;;;;20.50;59.40;;;;;;5032229;28;1346;-67
2021/05/18 17:53:08;;;;;;;;;;;20.50;59.40;;;;;;5032047;28;1277;-67
2021/05/18 17:55:34;;;;;;;;;;;20.50;59.50;;;;;;5030162;28;1374;-67
2021/05/18 17:58:00;;;;;;;;;;;20.50;59.50;;;;;;5032054;28;1906;-67
2021/05/18 18:00:25;;;;;;;;;;;20.50;59.50;;;;;;5032082;28;1528;-67
2021/05/18 18:02:51;;;;;;;;;;;20.50;60.20;;;;;;5030665;28;1307;-68
2021/05/18 18:05:17;;;;;;;;;;;20.50;59.60;;;;;;5032461;28;1420;-67
2021/05/18 18:07:42;;;;;;;;;;;20.50;59.60;;;;;;5032739;28;1111;-68
2021/05/18 18:10:08;;;;;;;;;;;20.40;59.60;;;;;;5030798;28;1341;-68
2021/05/18 18:12:34;;;;;;;;;;;20.40;59.60;;;;;;5031664;28;1330;-68
2021/05/18 18:14:59;;;;;;;;;;;20.40;59.70;;;;;;5030783;28;1237;-66
2021/05/18 18:17:26;;;;;;;;;;;20.40;59.70;;;;;;5030331;28;1902;-68
2021/05/18 18:19:55;;;;;;;;;;;20.40;59.70;;;;;;5031945;28;1253;-68
2021/05/18 18:22:21;;;;;;;;;;;20.40;59.80;;;;;;5030752;28;1072;-68
2021/05/18 18:24:46;;;;;;;;;;;20.40;59.80;;;;;;5030880;28;1437;-69
2021/05/18 18:27:12;;;;;;;;;;;20.40;59.80;;;;;;5035307;28;1170;-68
2021/05/18 18:29:39;;;;;;;;;;;20.40;59.90;;;;;;5035172;28;1448;-69
2021/05/18 18:32:05;;;;;;;;;;;20.40;59.90;;;;;;5035599;28;1099;-68
2021/05/18 18:34:30;;;;;;;;;;;20.40;59.90;;;;;;5033967;28;1317;-67
2021/05/18 18:36:56;;;;;;;;;;;20.40;60.00;;;;;;5034905;28;1957;-68
2021/05/18 18:39:22;;;;;;;;;;;20.40;60.00;;;;;;5035233;28;1397;-69
2021/05/18 18:41:47;;;;;;;;;;;20.40;60.00;;;;;;5035199;28;1085;-68
2021/05/18 18:44:13;;;;;;;;;;;20.40;60.10;;;;;;5033676;28;1497;-68
2021/05/18 18:46:39;;;;;;;;;;;20.40;60.10;;;;;;5034779;28;1075;-68
2021/05/18 18:49:05;;;;;;;;;;;20.30;60.10;;;;;;5035081;28;1175;-68
2021/05/18 18:51:33;;;;;;;;;;;20.40;60.20;;;;;;5035065;28;1254;-69
2021/05/18 18:53:58;;;;;;;;;;;20.30;60.20;;;;;;5034001;28;1357;-69
2021/05/18 18:56:23;;;;;;;;;;;20.30;60.20;;;;;;5034673;28;1914;-68
2021/05/18 18:58:49;;;;;;;;;;;20.30;60.20;;;;;;5034740;28;1279;-68
2021/05/18 19:01:15;;;;;;;;;;;20.30;60.20;;;;;;5034808;28;1098;-68
2021/05/18 19:03:49;;;;;;;;;;;20.30;60.30;;;;;;5033633;28;1358;-67
2021/05/18 19:06:23;;;;;;;;;;;20.30;60.30;;;;;;5034510;28;1119;-69
2021/05/18 19:12:40;;;;;;;;;;;20.30;60.30;;;;;;5027971;28;934;-68
2021/05/18 19:14:21;;;;;;;;;;;20.30;60.40;;;;;;5028077;28;1235;-68
2021/05/18 19:16:49;;;;;;;;;;;20.30;60.40;;;;;;5034377;28;1969;-69
2021/05/18 19:19:17;;;;;;;;;;;20.30;60.40;;;;;;5034635;28;1119;-67
2021/05/18 19:21:43;;;;;;;;;;;20.30;60.40;;;;;;5032721;28;1073;-68
2021/05/18 19:24:09;;;;;;;;;;;20.30;60.40;;;;;;5033309;28;1298;-67